Time;durP1;ratioP1;P1;durP2;ratioP2;P2;SDS_P1;SDS_P2;PMS_P1;PMS_P2;Temp;Humidity;BMP_temperature;BMP_pressure;BME280_temperature;BME280_humidity;BME280_pressure;Samples;Min_cycle;Max_cycle;Signal;HPM_P1;HPM_P2
2021/04/13 00:01:18;;;;;;;17.07;8.28;;;12.60;57.80;;;;;;1748272;82;21154;-81
2021/04/13 00:03:58;;;;;;;13.25;7.12;;;12.70;58.40;;;;;;1748438;82;21142;-81
2021/04/13 00:06:49;;;;;;;15.60;6.25;;;12.70;58.80;;;;;;1748222;82;21147;-81
2021/04/13 00:09:27;;;;;;;14.60;6.87;;;12.60;57.70;;;;;;1748336;82;21133;-81
2021/04/13 00:12:06;;;;;;;15.75;6.72;;;12.50;57.70;;;;;;1746314;81;21557;-81
2021/04/13 00:14:42;;;;;;;17.07;7.47;;;12.40;57.50;;;;;;1740086;82;21273;-81
2021/04/13 00:17:14;;;;;;;14.95;7.97;;;12.50;58.50;;;;;;1740185;82;21707;-82
2021/04/13 00:19:59;;;;;;;19.30;8.90;;;12.50;57.60;;;;;;1740184;82;21703;-81
2021/04/13 00:22:29;;;;;;;17.02;8.48;;;12.50;57.40;;;;;;1740244;82;21342;-81
2021/04/13 00:24:58;;;;;;;13.08;6.25;;;12.60;57.20;;;;;;1740130;82;21722;-81
2021/04/13 00:27:28;;;;;;;19.32;6.75;;;12.60;58.30;;;;;;1740136;82;21696;-81
2021/04/13 00:30:19;;;;;;;10.43;5.85;;;12.50;58.30;;;;;;1740059;82;21280;-81
2021/04/13 00:32:52;;;;;;;14.15;5.70;;;12.40;58.40;;;;;;1739556;82;21158;-81
2021/04/13 00:35:35;;;;;;;12.95;6.33;;;12.50;58.50;;;;;;1736803;82;21157;-81
2021/04/13 00:38:29;;;;;;;12.90;6.08;;;12.50;58.30;;;;;;1740051;82;21681;-81
2021/04/13 00:41:02;;;;;;;14.73;6.40;;;12.40;58.80;;;;;;1740292;82;21288;-81
2021/04/13 00:43:30;;;;;;;9.93;5.42;;;12.40;59.10;;;;;;1732493;82;21173;-81
2021/04/13 00:45:59;;;;;;;14.00;6.20;;;12.40;59.20;;;;;;1740002;82;21150;-81
2021/04/13 00:48:32;;;;;;;14.28;6.45;;;12.40;59.00;;;;;;1740022;82;21323;-81
2021/04/13 00:51:20;;;;;;;11.95;6.37;;;12.30;59.60;;;;;;1740101;82;21127;-80
2021/04/13 00:53:52;;;;;;;12.13;6.45;;;12.20;59.60;;;;;;1740026;82;21150;-81
2021/04/13 00:56:22;;;;;;;12.40;5.72;;;12.00;59.60;;;;;;1740189;82;21146;-80
2021/04/13 00:58:58;;;;;;;10.90;5.97;;;11.90;60.40;;;;;;1740101;82;21292;-80
2021/04/13 01:01:40;;;;;;;11.63;6.55;;;11.90;60.90;;;;;;1740175;82;21719;-80
2021/04/13 01:04:14;;;;;;;13.72;6.53;;;12.00;61.80;;;;;;1740204;82;21154;-80
2021/04/13 01:06:43;;;;;;;11.85;5.85;;;11.90;61.50;;;;;;1739693;82;21304;-79
2021/04/13 01:09:25;;;;;;;13.30;6.05;;;11.80;61.60;;;;;;1740089;82;21118;-81
2021/04/13 01:11:57;;;;;;;13.45;6.33;;;11.80;62.20;;;;;;1740088;82;21276;-79
2021/04/13 01:14:29;;;;;;;11.30;6.40;;;11.80;62.20;;;;;;1740052;82;21142;-79
2021/04/13 01:17:02;;;;;;;11.28;6.00;;;11.80;62.20;;;;;;1740142;82;21257;-80
2021/04/13 01:20:00;;;;;;;15.80;6.65;;;11.80;61.80;;;;;;1740223;82;21145;-80
2021/04/13 01:25:43;;;;;;;15.20;6.80;;;11.80;61.80;;;;;;1740027;82;21292;-80
2021/04/13 01:28:19;;;;;;;13.40;6.80;;;11.80;61.60;;;;;;1740033;82;21098;-80
2021/04/13 01:30:56;;;;;;;18.07;7.03;;;11.80;61.80;;;;;;1740192;82;21289;-80
2021/04/13 01:33:41;;;;;;;13.45;6.92;;;11.80;62.30;;;;;;1740299;82;21732;-80
2021/04/13 01:36:28;;;;;;;13.18;7.45;;;11.90;62.10;;;;;;1739939;82;21612;-80
2021/04/13 01:39:24;;;;;;;14.73;6.60;;;11.90;62.50;;;;;;1740324;82;21127;-80
2021/04/13 01:41:58;;;;;;;17.60;7.45;;;11.90;62.40;;;;;;1739925;82;21280;-80
2021/04/13 01:44:48;;;;;;;13.78;7.15;;;11.80;62.90;;;;;;1740045;82;21138;-80
2021/04/13 01:47:20;;;;;;;14.63;7.17;;;11.90;63.00;;;;;;1740711;82;21542;-80
2021/04/13 01:50:00;;;;;;;12.05;6.97;;;11.80;63.50;;;;;;1740017;82;21166;-80
2021/04/13 01:52:36;;;;;;;15.70;6.75;;;11.90;63.00;;;;;;1740367;82;21300;-79
2021/04/13 01:55:16;;;;;;;12.70;7.20;;;11.90;63.60;;;;;;1740326;82;21289;-79
2021/04/13 01:58:03;;;;;;;13.00;7.60;;;11.90;64.10;;;;;;1740307;82;21700;-80
2021/04/13 02:00:51;;;;;;;17.10;7.60;;;11.90;64.30;;;;;;1739657;82;21142;-79
2021/04/13 02:03:50;;;;;;;18.12;7.30;;;11.90;63.10;;;;;;1740172;82;21285;-79
2021/04/13 02:06:30;;;;;;;14.25;7.28;;;11.90;63.30;;;;;;1740388;82;21267;-79
2021/04/13 02:09:15;;;;;;;18.90;7.58;;;12.00;61.70;;;;;;1740177;82;21270;-79
2021/04/13 02:11:44;;;;;;;15.90;7.25;;;11.90;61.20;;;;;;1740223;82;21332;-80
2021/04/13 02:14:19;;;;;;;18.48;8.00;;;11.90;62.20;;;;;;1752688;81;21161;-80
2021/04/13 02:16:58;;;;;;;18.40;8.48;;;11.80;61.40;;;;;;1754816;82;21181;-80
2021/04/13 02:19:26;;;;;;;20.80;8.98;;;11.80;61.90;;;;;;1752683;82;21169;-80
2021/04/13 02:22:05;;;;;;;15.40;9.13;;;11.80;61.80;;;;;;1754192;81;21149;-80
2021/04/13 02:24:38;;;;;;;19.23;9.28;;;11.80;61.40;;;;;;1753783;82;21166;-80
2021/04/13 02:27:16;;;;;;;16.20;8.48;;;11.80;62.10;;;;;;1754387;82;21584;-80
2021/04/13 02:29:50;;;;;;;17.92;8.28;;;11.70;62.20;;;;;;1754159;82;21130;-79
2021/04/13 02:32:26;;;;;;;18.15;8.53;;;11.70;62.70;;;;;;1754222;81;21576;-79
2021/04/13 02:35:05;;;;;;;19.73;8.78;;;11.80;63.10;;;;;;1754387;81;21158;-79
2021/04/13 02:37:52;;;;;;;16.95;8.93;;;11.80;63.80;;;;;;1754359;81;21134;-79
2021/04/13 02:40:46;;;;;;;18.48;8.23;;;11.80;62.80;;;;;;1754159;82;21110;-80
2021/04/13 02:43:24;;;;;;;14.98;8.08;;;11.80;63.60;;;;;;1754062;81;21134;-79
2021/04/13 02:45:57;;;;;;;15.85;8.68;;;11.80;63.20;;;;;;1753316;82;21145;-80
2021/04/13 02:48:40;;;;;;;15.05;8.63;;;11.80;63.50;;;;;;1754374;82;21142;-80
2021/04/13 02:51:07;;;;;;;16.52;8.83;;;11.80;63.40;;;;;;1753463;82;21145;-79
2021/04/13 02:53:40;;;;;;;17.15;8.68;;;11.70;64.00;;;;;;1754323;82;21138;-79
2021/04/13 02:56:22;;;;;;;17.75;9.40;;;11.70;64.40;;;;;;1754156;82;21445;-79
2021/04/13 02:59:23;;;;;;;22.37;9.68;;;11.70;64.20;;;;;;1749898;82;21619;-80
2021/04/13 03:02:12;;;;;;;18.60;9.18;;;11.60;64.40;;;;;;1754530;82;21138;-80
2021/04/13 03:04:48;;;;;;;18.57;9.35;;;11.60;66.00;;;;;;1754019;81;21181;-81
2021/04/13 03:07:21;;;;;;;16.42;8.18;;;11.60;64.80;;;;;;1754452;82;21142;-79
2021/04/13 03:09:57;;;;;;;15.55;7.90;;;11.50;64.50;;;;;;1754248;81;21173;-79
2021/04/13 03:12:25;;;;;;;15.97;7.97;;;11.50;65.60;;;;;;1753600;81;21169;-79
2021/04/13 03:14:56;;;;;;;17.90;7.37;;;11.50;65.10;;;;;;1754230;81;21560;-80
2021/04/13 03:17:29;;;;;;;13.78;6.90;;;11.50;65.30;;;;;;1754535;81;21544;-81
2021/04/13 03:20:12;;;;;;;18.60;7.62;;;11.50;65.40;;;;;;1754308;82;21141;-81
2021/04/13 03:22:40;;;;;;;15.38;7.53;;;11.50;64.80;;;;;;1754250;82;21584;-80
2021/04/13 03:25:13;;;;;;;16.27;7.25;;;11.40;65.30;;;;;;1754146;81;21174;-79
2021/04/13 03:27:43;;;;;;;14.38;7.50;;;11.40;65.80;;;;;;1754400;82;21146;-79
2021/04/13 03:30:23;;;;;;;15.00;6.83;;;11.30;66.10;;;;;;1754375;82;21521;-79
2021/04/13 03:32:59;;;;;;;13.93;7.25;;;11.30;66.10;;;;;;1754491;81;21130;-79
2021/04/13 03:35:30;;;;;;;12.58;7.05;;;11.30;66.20;;;;;;1754303;81;21582;-79
2021/04/13 03:38:04;;;;;;;16.27;7.10;;;11.30;66.30;;;;;;1754144;81;21122;-79
2021/04/13 03:40:37;;;;;;;15.85;7.03;;;11.30;66.70;;;;;;1754333;81;21137;-79
2021/04/13 03:43:07;;;;;;;17.45;7.00;;;11.30;66.50;;;;;;1754155;81;21130;-80
2021/04/13 03:45:37;;;;;;;15.20;6.30;;;11.30;67.50;;;;;;1754126;82;21137;-80
2021/04/13 03:48:16;;;;;;;11.63;6.25;;;11.30;66.60;;;;;;1754104;82;21604;-79
2021/04/13 03:50:46;;;;;;;15.85;7.08;;;11.30;68.00;;;;;;1753489;82;21114;-80
2021/04/13 03:53:16;;;;;;;15.08;6.85;;;11.30;66.80;;;;;;1754136;81;21142;-80
2021/04/13 03:56:10;;;;;;;17.23;6.67;;;11.30;67.50;;;;;;1754085;82;21110;-80
2021/04/13 03:58:43;;;;;;;16.50;8.25;;;11.30;67.60;;;;;;1726777;82;21569;-80
2021/04/13 04:01:20;;;;;;;19.40;10.85;;;11.30;67.60;;;;;;1754118;81;21150;-80
2021/04/13 04:03:57;;;;;;;21.70;11.30;;;11.40;67.50;;;;;;1754116;81;21103;-80
2021/04/13 04:06:45;;;;;;;27.95;12.80;;;11.40;67.10;;;;;;1754224;81;21536;-79
2021/04/13 04:09:19;;;;;;;25.25;12.33;;;11.40;67.10;;;;;;1754241;81;21146;-80
2021/04/13 04:11:50;;;;;;;32.48;12.58;;;11.50;67.40;;;;;;1754094;82;21162;-80
2021/04/13 04:14:27;;;;;;;29.30;12.90;;;11.50;66.50;;;;;;1754116;81;21595;-80
2021/04/13 04:17:15;;;;;;;24.37;13.18;;;11.60;66.30;;;;;;1754306;81;21563;-80
2021/04/13 04:19:53;;;;;;;26.65;13.35;;;11.60;66.40;;;;;;1754076;82;21125;-80
2021/04/13 04:22:23;;;;;;;32.10;13.62;;;11.60;65.90;;;;;;1754175;81;21138;-79
2021/04/13 04:24:53;;;;;;;25.92;13.32;;;11.70;66.10;;;;;;1754063;81;21556;-81
2021/04/13 04:27:39;;;;;;;29.50;13.95;;;11.70;66.50;;;;;;1754586;82;21272;-81
2021/04/13 04:30:24;;;;;;;28.75;14.18;;;11.70;67.00;;;;;;1754107;82;21134;-80
2021/04/13 04:32:54;;;;;;;34.95;15.90;;;11.70;66.50;;;;;;1754036;81;21142;-80
2021/04/13 04:35:43;;;;;;;28.20;13.95;;;11.60;67.10;;;;;;1753998;82;21102;-80
2021/04/13 04:38:31;;;;;;;32.88;14.18;;;11.70;66.50;;;;;;1754259;82;21145;-81
2021/04/13 04:41:06;;;;;;;28.75;13.62;;;11.60;65.90;;;;;;1754237;81;21149;-80
2021/04/13 04:43:44;;;;;;;26.12;13.78;;;11.70;66.00;;;;;;1754130;82;21578;-80
2021/04/13 04:46:38;;;;;;;28.80;13.25;;;11.70;66.80;;;;;;1754303;81;21149;-80
2021/04/13 04:49:11;;;;;;;26.30;12.33;;;11.80;66.10;;;;;;1753990;81;21134;-81
2021/04/13 04:51:42;;;;;;;26.10;12.98;;;11.80;65.20;;;;;;1754221;81;21573;-80
2021/04/13 04:54:10;;;;;;;24.80;11.95;;;11.80;65.20;;;;;;1754306;82;21146;-79
2021/04/13 04:56:38;;;;;;;21.73;12.40;;;11.80;65.70;;;;;;1754138;82;21153;-80
2021/04/13 04:59:06;;;;;;;26.25;12.20;;;11.90;65.00;;;;;;1754041;82;21118;-79
2021/04/13 05:01:34;;;;;;;27.10;12.70;;;11.90;65.00;;;;;;1754034;82;21148;-80
2021/04/13 05:04:03;;;;;;;24.85;11.83;;;12.00;65.70;;;;;;1754037;81;21583;-81
2021/04/13 05:06:31;;;;;;;22.87;12.33;;;12.10;64.50;;;;;;1754294;81;21161;-81
2021/04/13 05:08:58;;;;;;;29.63;13.62;;;12.20;63.80;;;;;;1726656;82;21525;-81
2021/04/13 05:11:26;;;;;;;36.23;14.18;;;12.30;64.10;;;;;;1754085;81;21601;-81
2021/04/13 05:13:54;;;;;;;25.90;14.03;;;12.30;63.80;;;;;;1748150;81;21576;-81
2021/04/13 05:16:23;;;;;;;32.15;14.65;;;12.30;63.60;;;;;;1740104;82;21123;-80
2021/04/13 05:18:52;;;;;;;34.50;14.40;;;12.30;64.00;;;;;;1740087;82;21288;-81
2021/04/13 05:21:20;;;;;;;28.35;14.55;;;12.20;64.80;;;;;;1740294;82;21293;-81
2021/04/13 05:23:47;;;;;;;32.35;13.03;;;12.30;63.90;;;;;;1740474;82;21138;-81
2021/04/13 05:26:15;;;;;;;34.88;13.08;;;12.30;64.20;;;;;;1740067;82;21162;-81
2021/04/13 05:28:43;;;;;;;28.35;12.37;;;12.30;63.70;;;;;;1740045;82;21288;-81
2021/04/13 05:31:11;;;;;;;28.20;11.40;;;12.30;63.60;;;;;;1740177;82;21309;-79
2021/04/13 05:33:39;;;;;;;24.63;11.33;;;12.30;63.50;;;;;;1740065;82;21633;-80
2021/04/13 05:36:07;;;;;;;20.60;10.10;;;12.30;63.40;;;;;;1740733;82;21150;-81
2021/04/13 05:38:42;;;;;;;26.90;10.48;;;12.30;63.30;;;;;;1740360;82;21123;-80
2021/04/13 05:41:13;;;;;;;22.17;10.48;;;12.30;63.30;;;;;;1740245;82;21300;-80
2021/04/13 05:43:43;;;;;;;20.75;10.65;;;12.30;64.10;;;;;;1740349;82;21135;-81
2021/04/13 05:46:23;;;;;;;21.57;11.50;;;12.30;63.40;;;;;;1740523;82;21141;-80
2021/04/13 05:48:52;;;;;;;26.87;12.00;;;12.30;63.70;;;;;;1740337;82;22042;-81
2021/04/13 05:51:19;;;;;;;23.27;11.65;;;12.40;63.30;;;;;;1740149;82;21316;-80
2021/04/13 05:53:47;;;;;;;24.37;11.00;;;12.40;63.40;;;;;;1740465;82;21182;-81
2021/04/13 05:56:19;;;;;;;23.80;13.08;;;12.40;62.40;;;;;;1740150;82;21362;-80
2021/04/13 05:58:50;;;;;;;28.30;13.62;;;12.40;63.10;;;;;;1740308;82;21600;-81
2021/04/13 06:01:20;;;;;;;31.17;13.53;;;12.40;63.50;;;;;;1740243;82;21292;-81
2021/04/13 06:03:48;;;;;;;30.80;14.47;;;12.40;64.20;;;;;;1740364;82;21540;-80
2021/04/13 06:06:17;;;;;;;27.35;14.33;;;12.50;64.40;;;;;;1740345;82;21281;-80
2021/04/13 06:08:46;;;;;;;33.30;14.83;;;12.40;65.90;;;;;;1740166;82;21142;-80
2021/04/13 06:11:28;;;;;;;29.15;14.95;;;12.50;64.70;;;;;;1740385;82;21115;-80
2021/04/13 06:13:59;;;;;;;32.83;15.25;;;12.50;65.00;;;;;;1740308;81;21560;-80
2021/04/13 06:16:33;;;;;;;30.80;15.28;;;12.50;64.20;;;;;;1740255;82;21569;-79
2021/04/13 06:18:56;;;;;;;25.82;14.80;;;12.50;63.90;;;;;;1739554;82;21181;-81
2021/04/13 06:21:24;;;;;;;30.12;14.45;;;12.40;63.60;;;;;;1740191;82;21605;-81
2021/04/13 06:23:51;;;;;;;29.35;15.23;;;12.50;63.70;;;;;;1740156;82;21288;-80
2021/04/13 06:26:20;;;;;;;32.10;16.23;;;12.50;63.40;;;;;;1740143;82;21304;-81
2021/04/13 06:28:48;;;;;;;34.75;16.35;;;12.50;63.60;;;;;;1740216;82;21293;-81
2021/04/13 06:31:16;;;;;;;30.60;16.07;;;12.60;63.80;;;;;;1740579;82;21154;-80
2021/04/13 06:33:43;;;;;;;37.63;17.30;;;12.70;62.80;;;;;;1740111;82;21308;-81
2021/04/13 06:36:16;;;;;;;30.52;17.23;;;12.70;62.70;;;;;;1740135;82;21782;-80
2021/04/13 06:38:46;;;;;;;37.03;17.10;;;12.80;62.70;;;;;;1740453;82;21150;-81
2021/04/13 06:41:45;;;;;;;33.73;16.95;;;12.90;62.40;;;;;;1740338;82;21284;-80
2021/04/13 06:44:52;;;;;;;55.43;18.23;;;12.90;61.90;;;;;;1740181;82;21743;-80
2021/04/13 06:48:02;;;;;;;41.50;17.90;;;13.10;62.00;;;;;;1740182;82;21308;-80
2021/04/13 06:50:38;;;;;;;56.48;18.30;;;13.10;62.00;;;;;;1740143;82;21305;-80
2021/04/13 06:53:19;;;;;;;61.25;18.20;;;13.20;61.70;;;;;;1739860;82;21751;-80
2021/04/13 06:56:09;;;;;;;38.17;17.80;;;13.30;60.70;;;;;;1739802;82;21722;-80
2021/04/13 06:59:10;;;;;;;43.52;18.40;;;13.30;61.00;;;;;;1740150;82;21289;-80
2021/04/13 07:02:00;;;;;;;39.15;18.15;;;13.40;61.60;;;;;;1740301;82;21268;-80
2021/04/13 07:04:39;;;;;;;45.70;18.23;;;13.40;60.20;;;;;;1740473;82;21130;-80
2021/04/13 07:07:35;;;;;;;45.25;19.32;;;13.50;60.30;;;;;;1740127;82;21285;-79
2021/04/13 07:10:30;;;;;;;41.30;19.55;;;13.50;60.90;;;;;;1739852;82;21170;-80
2021/04/13 07:13:09;;;;;;;36.20;19.70;;;13.60;61.80;;;;;;1740476;82;21166;-79
2021/04/13 07:15:48;;;;;;;33.92;19.80;;;13.70;61.40;;;;;;1740218;81;21130;-80
2021/04/13 07:18:45;;;;;;;41.55;19.80;;;13.70;61.30;;;;;;1740406;82;21522;-80
2021/04/13 07:21:35;;;;;;;;;;;13.70;61.10;;;;;;1743258;82;21166;-80
2021/04/13 07:24:41;;;;;;;38.00;18.25;;;13.80;59.90;;;;;;1740100;82;20131;-80
2021/04/13 07:27:32;;;;;;;34.95;18.80;;;13.80;60.30;;;;;;1740064;82;21190;-79
2021/04/13 07:30:08;;;;;;;39.55;19.62;;;13.90;60.40;;;;;;1740073;82;21297;-80
2021/04/13 07:32:36;;;;;;;;;;;14.00;59.70;;;;;;1742672;82;21735;-81
2021/04/13 07:35:10;;;;;;;44.45;21.07;;;14.20;59.70;;;;;;1740637;82;20137;-81
2021/04/13 07:37:43;;;;;;;44.03;20.52;;;14.30;59.20;;;;;;1740378;82;21134;-80
2021/04/13 07:40:28;;;;;;;36.98;19.32;;;14.40;58.90;;;;;;1740257;82;21296;-80
2021/04/13 07:43:13;;;;;;;34.18;18.75;;;14.50;59.10;;;;;;1740139;82;21712;-80
2021/04/13 07:46:20;;;;;;;34.03;18.02;;;14.60;58.10;;;;;;1740115;82;21260;-80
2021/04/13 07:49:16;;;;;;;43.08;20.05;;;14.70;58.60;;;;;;1740202;82;21738;-79
2021/04/13 07:52:01;;;;;;;33.85;19.82;;;14.70;57.90;;;;;;1740058;82;21177;-80
2021/04/13 07:55:02;;;;;;;36.93;20.75;;;14.80;57.50;;;;;;1739577;82;21276;-80
2021/04/13 07:57:44;;;;;;;38.48;21.17;;;14.80;57.30;;;;;;1740373;82;21280;-80
2021/04/13 08:00:27;;;;;;;41.10;21.85;;;14.80;56.80;;;;;;1739139;82;21171;-80
2021/04/13 08:03:09;;;;;;;49.15;23.05;;;14.90;56.70;;;;;;1740150;82;21696;-80
2021/04/13 08:05:45;;;;;;;39.60;21.50;;;14.80;56.60;;;;;;1739820;82;21150;-80
2021/04/13 08:08:38;;;;;;;41.35;21.17;;;14.80;56.60;;;;;;1740077;82;21338;-81
2021/04/13 08:11:20;;;;;;;43.20;22.45;;;14.90;56.70;;;;;;1740253;82;21268;-80
2021/04/13 08:13:51;;;;;;;43.73;20.48;;;14.80;56.80;;;;;;1736876;82;21166;-80
2021/04/13 08:16:38;;;;;;;35.00;19.27;;;14.90;57.20;;;;;;1740749;82;21141;-80
2021/04/13 08:19:31;;;;;;;36.48;16.30;;;14.90;57.00;;;;;;1740150;82;21688;-80
2021/04/13 08:22:16;;;;;;;31.73;15.40;;;15.00;56.20;;;;;;1740247;82;21613;-81
2021/04/13 08:24:53;;;;;;;35.38;15.18;;;15.00;56.30;;;;;;1740063;82;21552;-80
2021/04/13 08:27:45;;;;;;;32.33;17.65;;;15.00;56.40;;;;;;1740064;82;21273;-80
2021/04/13 08:30:22;;;;;;;34.43;16.45;;;15.10;55.90;;;;;;1740029;82;21738;-80
2021/04/13 08:33:31;;;;;;;31.97;16.35;;;15.10;56.30;;;;;;1740247;82;21304;-80
2021/04/13 08:36:15;;;;;;;34.10;16.48;;;15.20;56.20;;;;;;1740124;82;21299;-80
2021/04/13 08:39:11;;;;;;;30.48;16.35;;;15.30;56.50;;;;;;1739833;82;21276;-80
2021/04/13 08:41:47;;;;;;;34.60;16.80;;;15.40;56.40;;;;;;1739588;82;21292;-81
2021/04/13 08:44:49;;;;;;;33.25;17.42;;;15.50;55.70;;;;;;1739109;82;21114;-80
2021/04/13 08:47:54;;;;;;;37.08;17.35;;;15.60;56.40;;;;;;1739888;82;21103;-80
2021/04/13 08:50:34;;;;;;;32.83;17.10;;;15.60;56.40;;;;;;1740184;82;21130;-80
2021/04/13 08:53:27;;;;;;;50.40;17.82;;;15.70;56.40;;;;;;1740375;82;21161;-80
2021/04/13 08:56:28;;;;;;;35.92;18.05;;;15.80;56.00;;;;;;1732618;82;21154;-80
2021/04/13 08:59:00;;;;;;;32.85;16.45;;;15.90;56.00;;;;;;1740116;82;21719;-80
2021/04/13 09:01:42;;;;;;;45.33;18.02;;;15.90;56.00;;;;;;1740072;82;21127;-80
2021/04/13 09:04:29;;;;;;;38.88;17.25;;;16.00;55.80;;;;;;1740188;82;21292;-80
2021/04/13 09:07:05;;;;;;;35.75;18.02;;;16.10;56.70;;;;;;1740041;82;21131;-80
2021/04/13 09:09:36;;;;;;;;;;;16.20;56.50;;;;;;1742722;82;21099;-80
2021/04/13 09:12:12;;;;;;;39.35;17.57;;;16.20;56.00;;;;;;1740073;82;20181;-80
2021/04/13 09:15:08;;;;;;;31.97;17.75;;;16.30;55.40;;;;;;1738901;82;21292;-80
2021/04/13 09:17:51;;;;;;;39.33;19.07;;;16.30;55.10;;;;;;1739632;82;21166;-80
2021/04/13 09:20:40;;;;;;;37.23;17.82;;;16.30;54.70;;;;;;1740237;82;21308;-80
2021/04/13 09:23:25;;;;;;;36.05;16.93;;;16.30;54.90;;;;;;1740113;82;21265;-80
2021/04/13 09:26:10;;;;;;;35.20;17.95;;;16.30;55.10;;;;;;1740125;82;21146;-80
2021/04/13 09:28:49;;;;;;;37.17;18.12;;;16.30;54.60;;;;;;1740197;82;21280;-80
2021/04/13 09:31:28;;;;;;;33.98;16.65;;;16.40;54.70;;;;;;1740091;82;21284;-80
2021/04/13 09:34:09;;;;;;;35.78;16.55;;;16.40;54.60;;;;;;1739597;82;21731;-80
2021/04/13 09:37:09;;;;;;;30.70;15.40;;;16.40;54.30;;;;;;1740223;82;21281;-80
2021/04/13 09:40:05;;;;;;;26.52;15.20;;;16.50;53.60;;;;;;1740116;82;21601;-80
2021/04/13 09:42:56;;;;;;;30.95;15.35;;;16.60;53.70;;;;;;1740482;82;21138;-80
2021/04/13 09:45:44;;;;;;;27.87;14.58;;;16.60;52.90;;;;;;1740045;82;21125;-80
2021/04/13 09:48:53;;;;;;;26.42;14.15;;;16.60;52.30;;;;;;1740002;82;21264;-80
2021/04/13 09:51:32;;;;;;;25.97;13.30;;;16.60;52.60;;;;;;1740162;82;21336;-80
2021/04/13 09:54:30;;;;;;;31.35;13.70;;;16.60;52.70;;;;;;1739390;82;21177;-80
2021/04/13 09:57:15;;;;;;;23.87;12.73;;;16.80;52.90;;;;;;1740033;82;21122;-78
2021/04/13 10:00:33;;;;;;;28.15;14.53;;;16.80;53.10;;;;;;1740489;82;21123;-80
2021/04/13 10:03:19;;;;;;;30.55;16.00;;;16.80;52.70;;;;;;1739394;82;21306;-78
2021/04/13 10:05:49;;;;;;;33.55;15.40;;;16.80;53.10;;;;;;1740316;82;21268;-80
2021/04/13 10:08:28;;;;;;;37.50;17.60;;;16.90;52.30;;;;;;1740147;82;21154;-80
2021/04/13 10:11:42;;;;;;;34.18;16.42;;;17.00;52.10;;;;;;1710541;84;21177;-80
2021/04/13 10:14:40;;;;;;;28.95;16.52;;;17.00;52.70;;;;;;1709689;84;21119;-80
2021/04/13 10:17:19;;;;;;;30.30;16.67;;;17.00;51.70;;;;;;1710666;84;21158;-80
2021/04/13 10:20:29;;;;;;;32.00;17.15;;;17.00;52.90;;;;;;1710759;83;21565;-80
2021/04/13 10:23:14;;;;;;;30.02;16.10;;;17.10;52.30;;;;;;1711108;84;21288;-79
2021/04/13 10:26:24;;;;;;;27.32;14.95;;;17.20;52.10;;;;;;1710504;84;21130;-80
2021/04/13 10:29:09;;;;;;;32.55;14.98;;;17.30;52.60;;;;;;1710819;83;21154;-80
2021/04/13 10:32:34;;;;;;;25.15;14.05;;;17.30;52.20;;;;;;1710705;83;21158;-80
2021/04/13 10:35:33;;;;;;;28.60;15.03;;;17.40;52.30;;;;;;1710703;83;21150;-80
2021/04/13 10:38:41;;;;;;;29.65;14.07;;;17.50;52.40;;;;;;1710794;83;21572;-79
2021/04/13 10:41:40;;;;;;;27.73;14.83;;;17.60;52.10;;;;;;1710721;83;21166;-79
2021/04/13 10:44:29;;;;;;;29.27;13.65;;;17.60;52.40;;;;;;1710889;84;21142;-79
2021/04/13 10:47:34;;;;;;;27.52;13.40;;;17.70;52.20;;;;;;1710411;83;21170;-80
2021/04/13 10:50:56;;;;;;;25.45;12.23;;;17.80;51.60;;;;;;1709525;84;21166;-79
2021/04/13 10:54:10;;;;;;;28.35;12.40;;;17.80;52.00;;;;;;1708793;83;21162;-80
2021/04/13 10:57:08;;;;;;;23.27;11.88;;;17.90;52.10;;;;;;1702001;84;21114;-72
2021/04/13 10:59:56;;;;;;;24.72;12.68;;;18.00;51.80;;;;;;1697637;84;21185;-72
2021/04/13 11:02:52;;;;;;;24.02;13.40;;;18.00;51.30;;;;;;1689560;84;21620;-71
2021/04/13 11:05:51;;;;;;;32.17;13.30;;;18.10;51.50;;;;;;1704079;84;21169;-73
2021/04/13 11:08:50;;;;;;;29.10;14.05;;;18.10;52.00;;;;;;1696233;84;21150;-71
2021/04/13 11:11:43;;;;;;;26.52;13.93;;;18.10;51.50;;;;;;1622743;84;21194;-69
2021/04/13 11:15:04;;;;;;;25.95;13.25;;;18.20;51.10;;;;;;1690228;84;21154;-73
2021/04/13 11:18:02;;;;;;;23.38;12.53;;;18.20;50.90;;;;;;1704722;84;21125;-73
2021/04/13 11:20:59;;;;;;;21.93;7.85;;;18.20;51.60;;;;;;1697847;84;21150;-72
2021/04/13 11:23:52;;;;;;;12.18;6.90;;;18.20;48.90;;;;;;1696738;84;21565;-73
2021/04/13 11:26:41;;;;;;;15.32;6.58;;;18.20;48.60;;;;;;1697821;84;21150;-71
2021/04/13 11:29:46;;;;;;;14.15;6.08;;;18.20;48.60;;;;;;1662390;84;21122;-81
2021/04/13 11:32:39;;;;;;;15.98;6.47;;;18.20;48.50;;;;;;1698594;84;21162;-78
2021/04/13 11:35:19;;;;;;;13.75;6.45;;;18.20;48.40;;;;;;1697955;84;21134;-69
2021/04/13 11:38:34;;;;;;;16.30;7.10;;;18.20;48.70;;;;;;1697715;84;21551;-70
2021/04/13 11:41:22;;;;;;;13.83;7.05;;;18.20;48.70;;;;;;1698050;84;21568;-70
2021/04/13 11:44:01;;;;;;;10.10;6.20;;;18.20;49.20;;;;;;1671217;84;21161;-71
2021/04/13 11:47:02;;;;;;;16.95;6.87;;;18.10;49.20;;;;;;1695050;84;21154;-70
2021/04/13 11:49:57;;;;;;;14.65;6.58;;;18.10;49.30;;;;;;1640686;86;21193;-69
2021/04/13 11:52:39;;;;;;;13.72;6.78;;;18.10;49.70;;;;;;1696705;84;21158;-69
2021/04/13 11:55:29;;;;;;;13.13;7.03;;;18.10;49.50;;;;;;1669787;84;21158;-74
2021/04/13 11:58:17;;;;;;;14.65;7.12;;;18.20;49.60;;;;;;1688883;84;21149;-69
2021/04/13 12:00:49;;;;;;;14.20;6.67;;;18.20;50.00;;;;;;1687542;84;21133;-70
2021/04/13 12:03:26;;;;;;;13.72;7.30;;;18.20;50.00;;;;;;1701785;84;21146;-72
2021/04/13 12:06:01;;;;;;;12.37;6.80;;;18.10;50.00;;;;;;1697672;84;21596;-70
2021/04/13 12:08:37;;;;;;;20.40;7.00;;;18.10;49.80;;;;;;1697787;84;21608;-71
2021/04/13 12:11:08;;;;;;;;;;;18.10;50.00;;;;;;1700307;84;21102;-72
2021/04/13 12:13:44;;;;;;;18.65;7.50;;;18.10;50.00;;;;;;1694111;84;20155;-70
2021/04/13 12:16:21;;;;;;;;;;;18.10;50.20;;;;;;1697591;83;21545;-70
2021/04/13 12:19:04;;;;;;;20.30;7.42;;;18.10;50.30;;;;;;1697379;84;20133;-69
2021/04/13 12:21:49;;;;;;;18.23;7.80;;;18.10;50.80;;;;;;1698615;84;21130;-69
2021/04/13 12:24:22;;;;;;;17.07;7.17;;;18.10;50.20;;;;;;1675565;84;21130;-68
2021/04/13 12:26:50;;;;;;;14.28;7.45;;;18.10;51.00;;;;;;1686164;84;21185;-71
2021/04/13 12:29:31;;;;;;;19.17;7.47;;;18.00;51.40;;;;;;1682190;84;21311;-69
2021/04/13 12:32:17;;;;;;;18.57;7.78;;;18.00;51.50;;;;;;1697307;83;21150;-73
2021/04/13 12:34:58;;;;;;;14.18;7.70;;;18.00;51.30;;;;;;1698595;84;21146;-74
2021/04/13 12:37:48;;;;;;;16.75;7.72;;;18.00;51.00;;;;;;1694713;84;21153;-73
2021/04/13 12:40:24;;;;;;;18.60;7.90;;;18.00;51.80;;;;;;1701456;84;21150;-72
2021/04/13 12:43:06;;;;;;;14.05;7.70;;;18.00;51.60;;;;;;1697012;84;21609;-73
2021/04/13 12:45:47;;;;;;;16.60;7.87;;;18.00;51.80;;;;;;1697000;84;21133;-74
2021/04/13 12:48:29;;;;;;;14.40;7.42;;;18.00;51.60;;;;;;1698020;84;21129;-73
2021/04/13 12:51:05;;;;;;;21.42;8.53;;;18.00;51.60;;;;;;1693774;84;21123;-73
2021/04/13 12:53:33;;;;;;;;;;;18.10;52.20;;;;;;1696534;84;21552;-73
2021/04/13 12:56:12;;;;;;;19.02;7.53;;;18.00;51.00;;;;;;1697737;84;20192;-70
2021/04/13 12:58:43;;;;;;;17.98;8.33;;;18.00;52.00;;;;;;1682039;85;21170;-75
2021/04/13 13:01:22;;;;;;;19.35;7.90;;;18.00;52.50;;;;;;1682021;85;21186;-72
2021/04/13 13:03:50;;;;;;;18.80;7.42;;;18.00;52.00;;;;;;1680866;85;21624;-71
2021/04/13 13:06:28;;;;;;;14.50;7.42;;;17.90;52.10;;;;;;1692308;84;21142;-70
2021/04/13 13:09:02;;;;;;;15.50;6.87;;;18.00;52.10;;;;;;1702046;83;21162;-70
2021/04/13 13:11:30;;;;;;;17.10;7.55;;;18.00;52.60;;;;;;1697804;84;21149;-71
2021/04/13 13:14:02;;;;;;;15.90;7.78;;;18.00;52.70;;;;;;1693857;84;21173;-72
2021/04/13 13:16:33;;;;;;;16.35;7.58;;;18.00;53.10;;;;;;1689376;83;21153;-75
2021/04/13 13:19:00;;;;;;;14.63;7.60;;;18.10;52.90;;;;;;1702520;83;21790;-73
2021/04/13 13:21:51;;;;;;;15.65;7.55;;;18.10;53.30;;;;;;1706626;83;21132;-72
2021/04/13 13:24:27;;;;;;;16.67;7.72;;;18.10;53.30;;;;;;1705282;83;21165;-72
2021/04/13 13:26:55;;;;;;;13.60;7.92;;;18.20;52.30;;;;;;1705966;83;21126;-71
2021/04/13 13:29:23;;;;;;;16.55;8.28;;;18.20;52.60;;;;;;1705503;83;21141;-71
2021/04/13 13:31:51;;;;;;;18.65;8.18;;;18.30;52.30;;;;;;1703463;83;21204;-73
2021/04/13 13:34:23;;;;;;;17.07;8.30;;;18.30;52.70;;;;;;1702808;83;21702;-73
2021/04/13 13:36:51;;;;;;;17.98;7.90;;;18.20;52.90;;;;;;1705656;83;21161;-72
2021/04/13 13:39:28;;;;;;;20.05;7.92;;;18.30;53.10;;;;;;1705275;83;21576;-72
2021/04/13 13:42:01;;;;;;;15.65;7.83;;;18.30;52.80;;;;;;1705490;83;21121;-74
2021/04/13 13:44:49;;;;;;;13.53;8.03;;;18.20;52.70;;;;;;1703116;83;21102;-71
2021/04/13 13:47:35;;;;;;;17.67;8.30;;;18.30;53.20;;;;;;1704745;83;21567;-72